createdAt,value
2018-08-24T00:01:58.951Z,100449.16
2018-08-24T00:04:26.674Z,100442.25
2018-08-24T00:06:54.315Z,100446.73
2018-08-24T00:09:25.944Z,100451.60
2018-08-24T00:11:53.632Z,100443.59
2018-08-24T00:14:21.301Z,100434.55
2018-08-24T00:16:49.055Z,100428.35
2018-08-24T00:19:17.393Z,100415.70
2018-08-24T00:21:45.926Z,100409.90
2018-08-24T00:24:14.198Z,100402.58
2018-08-24T00:26:41.867Z,100397.79
2018-08-24T00:29:09.729Z,100393.48
2018-08-24T00:31:38.024Z,100399.83
2018-08-24T00:34:05.864Z,100398.58
2018-08-24T00:36:33.529Z,100392.11
2018-08-24T00:39:01.204Z,100389.25
2018-08-24T00:41:28.932Z,100384.59
2018-08-24T00:43:56.622Z,100385.38
2018-08-24T00:46:24.290Z,100373.54
2018-08-24T00:48:51.988Z,100363.36
2018-08-24T00:51:19.656Z,100356.70
2018-08-24T00:53:47.309Z,100351.81
2018-08-24T00:56:15.003Z,100351.66
2018-08-24T00:58:42.684Z,100349.61
2018-08-24T01:01:10.539Z,100342.98
2018-08-24T01:03:38.674Z,100334.47
2018-08-24T01:06:06.612Z,100328.45
2018-08-24T01:08:34.477Z,100330.75
2018-08-24T01:11:02.183Z,100326.42
2018-08-24T01:13:29.847Z,100323.83
2018-08-24T01:15:58.762Z,100311.56
2018-08-24T01:18:32.069Z,100313.43
2018-08-24T01:20:59.878Z,100310.84
2018-08-24T01:23:29.046Z,100310.20
2018-08-24T01:25:56.779Z,100297.92
2018-08-24T01:28:25.937Z,100298.25
2018-08-24T01:30:53.761Z,100303.28
2018-08-24T01:33:21.420Z,100301.36
2018-08-24T01:35:49.118Z,100297.20
2018-08-24T01:38:16.822Z,100292.78
2018-08-24T01:40:44.482Z,100282.92
2018-08-24T01:43:12.166Z,100289.79
2018-08-24T01:45:39.843Z,100290.50
2018-08-24T01:48:08.543Z,100291.37
2018-08-24T01:50:36.285Z,100294.54
2018-08-24T01:53:04.065Z,100283.20
2018-08-24T01:55:31.744Z,100291.55
2018-08-24T01:57:59.415Z,100257.72
2018-08-24T02:00:27.070Z,100268.05
2018-08-24T02:02:54.728Z,100269.77
2018-08-24T02:05:22.467Z,100263.59
2018-08-24T02:07:50.146Z,100261.53
2018-08-24T02:10:23.481Z,100253.23
2018-08-24T02:12:56.628Z,100247.00
2018-08-24T02:15:24.362Z,100251.90
2018-08-24T02:17:57.605Z,100242.41
2018-08-24T02:20:30.881Z,100240.12
2018-08-24T02:23:00.658Z,100230.30
2018-08-24T02:25:28.341Z,100214.36
2018-08-24T02:27:56.180Z,100207.37
2018-08-24T02:30:23.850Z,100201.79
2018-08-24T02:32:51.523Z,100188.92
2018-08-24T02:35:19.936Z,100188.91
2018-08-24T02:37:49.865Z,100188.27
2018-08-24T02:40:17.591Z,100193.20
2018-08-24T02:42:46.101Z,100190.75
2018-08-24T02:45:13.831Z,100195.42
2018-08-24T02:47:41.512Z,100190.34
2018-08-24T02:50:09.236Z,100186.53
2018-08-24T02:52:36.941Z,100180.10
2018-08-24T02:55:04.598Z,100184.80
2018-08-24T02:57:32.422Z,100184.88
2018-08-24T03:00:00.142Z,100178.78
2018-08-24T03:02:28.370Z,100174.80
2018-08-24T03:04:56.041Z,100167.30
2018-08-24T03:07:23.980Z,100154.63
2018-08-24T03:09:51.688Z,100152.87
2018-08-24T03:12:19.350Z,100157.80
2018-08-24T03:14:47.061Z,100147.72
2018-08-24T03:17:20.269Z,100136.75
2018-08-24T03:19:48.066Z,100123.09
2018-08-24T03:22:15.809Z,100130.06
2018-08-24T03:24:43.677Z,100129.19
2018-08-24T03:27:11.382Z,100124.53
2018-08-24T03:29:39.042Z,100120.03
2018-08-24T03:32:06.782Z,100101.25
2018-08-24T03:34:34.501Z,100112.25
2018-08-24T03:37:02.170Z,100112.79
2018-08-24T03:39:29.860Z,100112.39
2018-08-24T03:41:57.538Z,100115.07
2018-08-24T03:44:25.206Z,100114.09
2018-08-24T03:46:52.960Z,100126.86
2018-08-24T03:49:20.654Z,100122.56
2018-08-24T03:51:48.309Z,100109.56
2018-08-24T03:54:21.297Z,100098.47
2018-08-24T03:56:59.151Z,100096.55
2018-08-24T03:59:27.144Z,100082.64
2018-08-24T04:01:55.601Z,100079.95
2018-08-24T04:04:23.549Z,100077.59
2018-08-24T04:06:51.205Z,100088.59
2018-08-24T04:09:18.910Z,100078.56
2018-08-24T04:11:46.601Z,100079.44
2018-08-24T04:14:14.273Z,100076.45
2018-08-24T04:16:47.606Z,100072.98
2018-08-24T04:19:24.318Z,100082.18
2018-08-24T04:21:52.065Z,100079.09
2018-08-24T04:24:19.783Z,100082.28
2018-08-24T04:26:47.441Z,100074.09
2018-08-24T04:29:15.108Z,100067.71
2018-08-24T04:31:42.817Z,100067.09
2018-08-24T04:34:10.467Z,100054.27
2018-08-24T04:36:38.210Z,100051.45
2018-08-24T04:39:07.812Z,100044.55
2018-08-24T04:41:35.600Z,100032.51
2018-08-24T04:44:03.310Z,100039.63
2018-08-24T04:46:31.245Z,100039.14
2018-08-24T04:48:58.934Z,100031.62
2018-08-24T04:51:27.007Z,100033.02
2018-08-24T04:53:54.665Z,100028.49
2018-08-24T04:56:22.337Z,100037.90
2018-08-24T04:58:49.999Z,100031.77
2018-08-24T05:01:17.785Z,100033.23
2018-08-24T05:03:45.464Z,100031.85
2018-08-24T05:06:13.106Z,100031.16
2018-08-24T05:08:40.772Z,100026.30
2018-08-24T05:11:08.545Z,100016.28
2018-08-24T05:13:36.239Z,100011.01
2018-08-24T05:16:03.949Z,99997.58
2018-08-24T05:18:31.639Z,99999.22
2018-08-24T05:20:59.354Z,99993.87
2018-08-24T05:23:26.989Z,99986.34
2018-08-24T05:25:54.664Z,99970.37
2018-08-24T05:28:22.410Z,99966.31
2018-08-24T05:30:50.118Z,99961.27
2018-08-24T05:33:17.795Z,99965.42
2018-08-24T05:35:45.601Z,99952.69
2018-08-24T05:38:13.193Z,99960.84
2018-08-24T05:40:40.912Z,99956.94
2018-08-24T05:43:08.677Z,99958.22
2018-08-24T05:45:36.364Z,99962.05
2018-08-24T05:48:04.105Z,99945.42
2018-08-24T05:50:32.268Z,99946.75
2018-08-24T05:52:59.943Z,99943.20
2018-08-24T05:55:27.673Z,99936.77
2018-08-24T05:57:55.442Z,99946.90
2018-08-24T06:00:28.648Z,99941.30
2018-08-24T06:02:56.352Z,99951.91
2018-08-24T06:05:24.080Z,99945.88
2018-08-24T06:07:51.935Z,99946.90
2018-08-24T06:10:19.757Z,99939.42
2018-08-24T06:12:47.468Z,99935.02
2018-08-24T06:15:15.509Z,99933.60
2018-08-24T06:17:49.253Z,99940.96
2018-08-24T06:20:17.280Z,99936.23
2018-08-24T06:22:44.952Z,99944.95
2018-08-24T06:25:13.218Z,99944.45
2018-08-24T06:27:41.095Z,99941.03
2018-08-24T06:30:09.022Z,99948.02
2018-08-24T06:32:36.697Z,99935.09
2018-08-24T06:35:04.478Z,99934.59
2018-08-24T06:37:32.279Z,99924.33
2018-08-24T06:39:59.953Z,99937.27
2018-08-24T06:42:27.661Z,99930.38
2018-08-24T06:44:55.428Z,99932.92
2018-08-24T06:47:23.215Z,99931.69
2018-08-24T06:49:50.849Z,99943.14
2018-08-24T06:52:18.547Z,99939.39
2018-08-24T06:54:46.266Z,99927.49
2018-08-24T06:57:14.099Z,99924.94
2018-08-24T06:59:41.850Z,99924.00
2018-08-24T07:02:09.546Z,99916.36
2018-08-24T07:04:37.260Z,99920.64
2018-08-24T07:07:05.005Z,99915.73
2018-08-24T07:09:32.922Z,99912.95
2018-08-24T07:12:00.608Z,99907.49
2018-08-24T07:14:28.306Z,99887.84
2018-08-24T07:16:59.993Z,99877.03
2018-08-24T07:19:28.148Z,99885.41
2018-08-24T07:21:56.012Z,99878.08
2018-08-24T07:24:24.202Z,99872.70
2018-08-24T07:26:51.897Z,99866.63
2018-08-24T07:29:19.682Z,99870.13
2018-08-24T07:31:47.361Z,99863.06
2018-08-24T07:34:15.057Z,99857.33
2018-08-24T07:36:42.777Z,99842.79
2018-08-24T07:39:12.536Z,99838.87
2018-08-24T07:41:40.272Z,99808.20
2018-08-24T07:44:08.183Z,99853.41
2018-08-24T07:46:35.889Z,99852.08
2018-08-24T07:49:04.172Z,99844.18
2018-08-24T07:51:31.901Z,99845.23
2018-08-24T07:53:59.629Z,99859.83
2018-08-24T07:56:29.069Z,99861.63
2018-08-24T07:58:57.425Z,99860.71
2018-08-24T08:01:25.380Z,99860.47
2018-08-24T08:03:53.091Z,99848.28
2018-08-24T08:06:20.772Z,99812.08
2018-08-24T08:08:48.837Z,99794.47
2018-08-24T08:11:16.529Z,99777.80
2018-08-24T08:13:44.273Z,99777.43
2018-08-24T08:16:11.962Z,99794.16
2018-08-24T08:18:39.709Z,99798.67
2018-08-24T08:21:07.477Z,99791.74
2018-08-24T08:23:35.155Z,99797.09
2018-08-24T08:26:02.910Z,99803.67
2018-08-24T08:28:30.574Z,99793.16
2018-08-24T08:30:58.664Z,99791.91
2018-08-24T08:33:26.351Z,99786.75
2018-08-24T08:35:54.022Z,99792.17
2018-08-24T08:38:21.704Z,99787.84
2018-08-24T08:40:49.388Z,99783.55
2018-08-24T08:43:17.213Z,99783.05
2018-08-24T08:45:45.028Z,99781.77
2018-08-24T08:48:12.794Z,99791.98
2018-08-24T08:50:40.498Z,99795.23
2018-08-24T08:53:08.287Z,99795.37
2018-08-24T08:55:35.965Z,99797.81
2018-08-24T08:58:03.668Z,99802.48
2018-08-24T09:00:31.524Z,99805.23
2018-08-24T09:02:59.224Z,99809.82
2018-08-24T09:05:26.933Z,99819.18
2018-08-24T09:07:54.688Z,99810.46
2018-08-24T09:10:22.404Z,99799.88
2018-08-24T09:12:50.100Z,99799.92
2018-08-24T09:15:17.797Z,99799.23
2018-08-24T09:17:51.157Z,99789.80
2018-08-24T09:20:24.441Z,99795.45
2018-08-24T09:22:57.717Z,99784.47
2018-08-24T09:25:30.879Z,99780.69
2018-08-24T09:28:04.070Z,99786.53
2018-08-24T09:30:35.379Z,99778.71
2018-08-24T09:33:03.146Z,99774.45
2018-08-24T09:35:30.745Z,99792.65
2018-08-24T09:37:58.442Z,99806.98
2018-08-24T09:40:31.674Z,99801.31
2018-08-24T09:43:03.853Z,99804.66
2018-08-24T09:45:31.584Z,99803.86
2018-08-24T09:48:04.624Z,99803.67
2018-08-24T09:50:37.748Z,99800.41
2018-08-24T09:53:10.922Z,99799.08
2018-08-24T09:55:38.652Z,99802.45
2018-08-24T09:58:06.360Z,99795.36
2018-08-24T10:00:39.818Z,99785.33
2018-08-24T10:03:13.160Z,99793.52
2018-08-24T10:05:46.427Z,99796.52
2018-08-24T10:08:19.701Z,99793.21
2018-08-24T10:10:47.742Z,99805.05
2018-08-24T10:13:15.429Z,99796.96
2018-08-24T10:15:43.105Z,99791.57
2018-08-24T10:18:10.925Z,99784.30
2018-08-24T10:20:38.621Z,99794.23
2018-08-24T10:23:06.503Z,99789.79
2018-08-24T10:25:34.256Z,99784.61
2018-08-24T10:28:01.960Z,99772.25
2018-08-24T10:30:29.700Z,99753.80
2018-08-24T10:32:57.482Z,99738.17
2018-08-24T10:35:25.179Z,99743.66
2018-08-24T10:37:52.882Z,99738.11
2018-08-24T10:40:20.672Z,99732.36
2018-08-24T10:42:48.357Z,99729.87
2018-08-24T10:45:16.055Z,99738.64
2018-08-24T10:47:43.737Z,99744.52
2018-08-24T10:50:11.447Z,99753.09
2018-08-24T10:52:39.128Z,99754.70
2018-08-24T10:55:06.979Z,99762.32
2018-08-24T10:57:34.908Z,99773.16
2018-08-24T11:00:02.618Z,99777.49
2018-08-24T11:02:30.492Z,99789.89
2018-08-24T11:04:58.214Z,99789.69
2018-08-24T11:07:26.039Z,99593.09
2018-08-24T11:09:53.657Z,99781.70
2018-08-24T11:12:21.426Z,99767.18
2018-08-24T11:14:49.140Z,99757.55
2018-08-24T11:17:16.882Z,99772.30
2018-08-24T11:19:44.577Z,99780.84
2018-08-24T11:22:12.276Z,99768.48
2018-08-24T11:24:40.159Z,99775.91
2018-08-24T11:27:07.908Z,99768.34
2018-08-24T11:29:35.601Z,99766.90
2018-08-24T11:32:03.309Z,99753.32
2018-08-24T11:34:31.006Z,99749.03
2018-08-24T11:36:58.726Z,99755.53
2018-08-24T11:39:26.421Z,99752.67
2018-08-24T11:41:54.220Z,99747.07
2018-08-24T11:44:21.852Z,99750.27
2018-08-24T11:46:49.596Z,99757.47
2018-08-24T11:49:17.320Z,99759.96
2018-08-24T11:51:45.017Z,99758.14
2018-08-24T11:54:12.811Z,99755.80
2018-08-24T11:56:40.454Z,99766.89
2018-08-24T11:59:08.205Z,99775.13
2018-08-24T12:01:35.938Z,99771.62
2018-08-24T12:04:03.629Z,99701.64
2018-08-24T12:06:31.347Z,99752.62
2018-08-24T12:08:59.062Z,99760.13
2018-08-24T12:11:26.793Z,99764.13
2018-08-24T12:13:54.576Z,99761.12
2018-08-24T12:16:22.262Z,99760.91
2018-08-24T12:18:50.018Z,99762.46
2018-08-24T12:21:17.780Z,99751.80
2018-08-24T12:23:45.619Z,99759.94
2018-08-24T12:26:13.285Z,99752.30
2018-08-24T12:28:40.981Z,99744.48
2018-08-24T12:31:08.662Z,99748.28
2018-08-24T12:33:36.443Z,99742.13
2018-08-24T12:36:08.990Z,99739.41
2018-08-24T12:38:36.699Z,99736.61
2018-08-24T12:41:04.456Z,99611.08
2018-08-24T12:43:32.198Z,99739.83
2018-08-24T12:45:59.869Z,99739.66
2018-08-24T12:48:27.580Z,99741.52
2018-08-24T12:50:55.329Z,99743.17
2018-08-24T12:53:23.032Z,99753.49
2018-08-24T12:55:50.783Z,99748.55
2018-08-24T12:58:18.500Z,99744.09
2018-08-24T13:00:46.194Z,99730.38
2018-08-24T13:03:13.934Z,99730.44
2018-08-24T13:05:41.595Z,99724.13
2018-08-24T13:08:09.492Z,99722.47
2018-08-24T13:10:37.228Z,99721.15
2018-08-24T13:13:05.023Z,99722.50
2018-08-24T13:15:32.738Z,99719.36
2018-08-24T13:18:00.419Z,99713.19
2018-08-24T13:20:28.124Z,99722.72
2018-08-24T13:22:55.816Z,99727.88
2018-08-24T13:25:23.537Z,99748.21
2018-08-24T13:27:57.798Z,99745.06
2018-08-24T13:30:25.513Z,99742.73
2018-08-24T13:32:53.240Z,99749.22
2018-08-24T13:35:20.943Z,99735.74
2018-08-24T13:37:48.673Z,99725.55
2018-08-24T13:40:16.372Z,99722.39
2018-08-24T13:42:44.412Z,99711.04
2018-08-24T13:45:12.223Z,99704.63
2018-08-24T13:47:39.925Z,99718.55
2018-08-24T13:50:07.822Z,99728.55
2018-08-24T13:52:35.632Z,99722.62
2018-08-24T13:55:03.598Z,99718.84
2018-08-24T13:57:31.582Z,99708.70
2018-08-24T13:59:59.450Z,99700.03
2018-08-24T14:02:27.099Z,99701.83
2018-08-24T14:04:54.998Z,99728.88
2018-08-24T14:07:22.818Z,99746.56
2018-08-24T14:09:50.509Z,99742.89
2018-08-24T14:12:18.385Z,99734.13
2018-08-24T14:14:46.108Z,99746.97
2018-08-24T14:17:13.855Z,99736.95
2018-08-24T14:19:41.812Z,99723.97
2018-08-24T14:22:09.478Z,99717.60
2018-08-24T14:24:37.254Z,99709.60
2018-08-24T14:27:05.174Z,99707.12
2018-08-24T14:29:32.861Z,99721.91
2018-08-24T14:32:00.686Z,99706.91
2018-08-24T14:34:28.557Z,99704.56
2018-08-24T14:36:56.334Z,99704.22
2018-08-24T14:39:24.112Z,99704.84
2018-08-24T14:41:52.017Z,99727.48
2018-08-24T14:44:19.716Z,99714.75
2018-08-24T14:46:47.437Z,99706.67
2018-08-24T14:49:15.328Z,99717.97
2018-08-24T14:51:43.195Z,99722.84
2018-08-24T14:54:11.009Z,99720.53
2018-08-24T14:56:38.903Z,99723.30
2018-08-24T14:59:06.574Z,99726.86
2018-08-24T15:01:34.253Z,99738.20
2018-08-24T15:04:02.114Z,99727.53
2018-08-24T15:06:29.856Z,99721.23
2018-08-24T15:08:57.514Z,99681.41
2018-08-24T15:11:25.513Z,99718.67
2018-08-24T15:13:53.319Z,99709.88
2018-08-24T15:16:21.044Z,99702.22
2018-08-24T15:18:48.989Z,99703.73
2018-08-24T15:21:16.691Z,99708.09
2018-08-24T15:23:44.654Z,99714.91
2018-08-24T15:26:12.522Z,99713.05
2018-08-24T15:28:40.323Z,99709.91
2018-08-24T15:31:07.996Z,99710.19
2018-08-24T15:33:35.882Z,99677.84
2018-08-24T15:36:03.615Z,99699.56
2018-08-24T15:38:31.306Z,99699.20
2018-08-24T15:40:59.207Z,99688.56
2018-08-24T15:43:26.898Z,99694.50
2018-08-24T15:45:54.642Z,99691.68
2018-08-24T15:48:22.477Z,99693.17
2018-08-24T15:50:50.234Z,99685.24
2018-08-24T15:53:17.938Z,99690.30
2018-08-24T15:55:45.830Z,99693.09
2018-08-24T15:58:13.552Z,99685.52
2018-08-24T16:00:41.257Z,99691.89
2018-08-24T16:03:09.137Z,99695.25
2018-08-24T16:05:36.902Z,99688.58
2018-08-24T16:08:04.813Z,99685.26
2018-08-24T16:10:32.656Z,99678.06
2018-08-24T16:13:00.370Z,99669.78
2018-08-24T16:15:28.079Z,99668.45
2018-08-24T16:18:01.650Z,99665.94
2018-08-24T16:20:29.348Z,99673.07
2018-08-24T16:22:57.053Z,99665.27
2018-08-24T16:25:25.022Z,99666.27
2018-08-24T16:27:52.719Z,99666.56
2018-08-24T16:30:20.495Z,99659.55
2018-08-24T16:35:17.482Z,99659.22
2018-08-24T16:37:45.175Z,99660.05
2018-08-24T16:40:12.878Z,99659.55
2018-08-24T16:42:40.691Z,99663.09
2018-08-24T16:45:08.398Z,99659.01
2018-08-24T16:47:36.098Z,99665.69
2018-08-24T16:50:04.033Z,99664.85
2018-08-24T16:52:31.776Z,99667.20
2018-08-24T16:54:59.465Z,99663.55
2018-08-24T16:57:27.299Z,99661.58
2018-08-24T16:59:55.030Z,99666.37
2018-08-24T17:02:22.750Z,99658.22
2018-08-24T17:04:50.603Z,99654.40
2018-08-24T17:07:18.287Z,99655.39
2018-08-24T17:09:45.984Z,99654.70
2018-08-24T17:12:13.801Z,99660.03
2018-08-24T17:14:41.525Z,99665.31
2018-08-24T17:17:09.235Z,99669.02
2018-08-24T17:19:37.051Z,99673.13
2018-08-24T17:22:04.759Z,99669.52
2018-08-24T17:24:32.451Z,99665.00
2018-08-24T17:27:00.346Z,99666.19
2018-08-24T17:29:28.103Z,99624.89
2018-08-24T17:31:55.809Z,99658.46
2018-08-24T17:34:23.814Z,99656.77
2018-08-24T17:36:51.531Z,99657.43
2018-08-24T17:39:19.244Z,99652.78
2018-08-24T17:41:47.089Z,99648.09
2018-08-24T17:44:14.798Z,99644.07
2018-08-24T17:46:42.542Z,99648.32
2018-08-24T17:49:10.441Z,99650.14
2018-08-24T17:51:38.192Z,99646.30
2018-08-24T17:54:06.037Z,99639.19
2018-08-24T17:56:33.902Z,99636.39
2018-08-24T17:59:01.640Z,99640.11
2018-08-24T18:01:29.348Z,99638.01
2018-08-24T18:03:57.189Z,99630.39
2018-08-24T18:06:24.894Z,99625.53
2018-08-24T18:08:52.596Z,99626.20
2018-08-24T18:11:20.450Z,99624.16
2018-08-24T18:13:48.166Z,99616.68
2018-08-24T18:16:15.921Z,99615.01
2018-08-24T18:18:43.793Z,99621.16
2018-08-24T18:21:11.505Z,99616.07
2018-08-24T18:23:39.404Z,99615.54
2018-08-24T18:26:08.208Z,99615.47
2018-08-24T18:28:35.922Z,99619.95
2018-08-24T18:31:03.641Z,99617.88
2018-08-24T18:33:31.496Z,99610.21
2018-08-24T18:35:59.201Z,99609.22
2018-08-24T18:38:26.896Z,99606.88
2018-08-24T18:40:54.807Z,99611.20
2018-08-24T18:43:22.591Z,99614.38
2018-08-24T18:45:50.381Z,99620.86
2018-08-24T18:48:18.170Z,99620.52
2018-08-24T18:50:45.950Z,99612.52
2018-08-24T18:53:13.706Z,99610.16
2018-08-24T18:55:42.202Z,99606.84
2018-08-24T18:58:10.074Z,99601.50
2018-08-24T19:00:37.807Z,99611.16
2018-08-24T19:03:05.722Z,99608.95
2018-08-24T19:05:34.820Z,99599.56
2018-08-24T19:08:08.743Z,99603.41
2018-08-24T19:10:43.590Z,99610.43
2018-08-24T19:13:14.326Z,99603.89
2018-08-24T19:15:42.220Z,99614.45
2018-08-24T19:18:15.673Z,99609.27
2018-08-24T19:20:48.892Z,99601.94
2018-08-24T19:23:16.891Z,99603.78
2018-08-24T19:25:44.583Z,99595.58
2018-08-24T19:28:18.061Z,99593.75
2018-08-24T19:30:45.784Z,99590.93
2018-08-24T19:33:13.518Z,99595.90
2018-08-24T19:35:41.411Z,99596.58
2018-08-24T19:38:09.106Z,99596.72
2018-08-24T19:40:42.580Z,99567.00
2018-08-24T19:43:10.277Z,99598.45
2018-08-24T19:45:37.970Z,99597.73
2018-08-24T19:48:11.289Z,99606.67
2018-08-24T19:50:39.017Z,99602.98
2018-08-24T19:53:06.715Z,99625.72
2018-08-24T19:55:34.414Z,99637.43
2018-08-24T19:58:07.769Z,99655.81
2018-08-24T20:00:35.657Z,99627.50
2018-08-24T20:03:03.332Z,99609.43
2018-08-24T20:05:31.070Z,99612.20
2018-08-24T20:08:04.345Z,99617.48
2018-08-24T20:10:32.086Z,99608.88
2018-08-24T20:12:59.868Z,99608.59
2018-08-24T20:15:33.149Z,99618.77
2018-08-24T20:18:00.843Z,99630.81
2018-08-24T20:20:28.543Z,99634.02
2018-08-24T20:22:56.213Z,99604.41
2018-08-24T20:25:23.902Z,99600.77
2018-08-24T20:27:51.609Z,99606.33
2018-08-24T20:30:19.324Z,99594.73
2018-08-24T20:32:47.018Z,99595.63
2018-08-24T20:35:14.702Z,99607.81
2018-08-24T20:37:42.566Z,99588.70
2018-08-24T20:40:10.288Z,99579.98
2018-08-24T20:42:37.982Z,99566.78
2018-08-24T20:45:05.734Z,99560.53
2018-08-24T20:47:33.429Z,99558.38
2018-08-24T20:50:01.126Z,99566.82
2018-08-24T20:52:28.842Z,99559.13
2018-08-24T20:54:56.509Z,99555.06
2018-08-24T20:57:24.182Z,99555.09
2018-08-24T20:59:51.863Z,99555.84
2018-08-24T21:02:19.560Z,99540.65
2018-08-24T21:04:47.257Z,99542.83
2018-08-24T21:07:14.944Z,99530.11
2018-08-24T21:09:42.706Z,99529.35
2018-08-24T21:12:10.402Z,99527.71
2018-08-24T21:14:38.369Z,99541.49
2018-08-24T21:17:06.081Z,99536.09
2018-08-24T21:19:33.798Z,99537.41
2018-08-24T21:22:01.494Z,99537.13
2018-08-24T21:24:29.218Z,99531.98
2018-08-24T21:26:56.986Z,99525.41
2018-08-24T21:29:24.669Z,99530.97
2018-08-24T21:31:52.348Z,99530.48
2018-08-24T21:34:20.023Z,99533.76
2018-08-24T21:36:47.712Z,99534.61
2018-08-24T21:39:15.411Z,99558.03
2018-08-24T21:41:43.110Z,99546.58
2018-08-24T21:44:10.790Z,99545.72
2018-08-24T21:46:38.490Z,99558.16
2018-08-24T21:49:06.350Z,99542.31
2018-08-24T21:51:34.335Z,99539.10
2018-08-24T21:54:02.066Z,99538.21
2018-08-24T21:56:29.770Z,99528.96
2018-08-24T21:58:57.498Z,99524.94
2018-08-24T22:01:25.173Z,99529.60
2018-08-24T22:03:52.881Z,99533.48
2018-08-24T22:06:20.583Z,99531.16
2018-08-24T22:08:48.277Z,99531.55
2018-08-24T22:11:16.076Z,99536.16
2018-08-24T22:13:43.784Z,99528.63
2018-08-24T22:16:11.464Z,99519.08
2018-08-24T22:18:39.167Z,99525.55
2018-08-24T22:21:07.170Z,99525.44
2018-08-24T22:23:34.883Z,99529.46
2018-08-24T22:26:02.629Z,99512.83
2018-08-24T22:28:30.347Z,99515.32
2018-08-24T22:30:58.043Z,99518.59
2018-08-24T22:33:25.759Z,99506.41
2018-08-24T22:35:53.450Z,99500.13
2018-08-24T22:38:21.152Z,99501.14
2018-08-24T22:40:48.847Z,99502.78
2018-08-24T22:43:22.044Z,99509.80
2018-08-24T22:45:49.757Z,99506.83
2018-08-24T22:48:17.449Z,99514.44
2018-08-24T22:50:45.156Z,99505.07
2018-08-24T22:53:12.859Z,99507.33
2018-08-24T22:55:40.561Z,99507.73
2018-08-24T22:58:08.544Z,99509.37
2018-08-24T23:00:36.248Z,99485.91
2018-08-24T23:03:03.985Z,99513.94
2018-08-24T23:05:31.688Z,99510.46
2018-08-24T23:07:59.391Z,99508.04
2018-08-24T23:10:27.087Z,99503.06
2018-08-24T23:12:54.784Z,99497.47
2018-08-24T23:15:22.496Z,99504.02
2018-08-24T23:17:50.201Z,99497.23
2018-08-24T23:20:17.910Z,99496.41
2018-08-24T23:22:45.621Z,99498.69
2018-08-24T23:25:13.330Z,99492.05
2018-08-24T23:27:41.018Z,99494.39
2018-08-24T23:30:08.797Z,99494.67
2018-08-24T23:32:36.533Z,99501.48
2018-08-24T23:35:04.268Z,99501.48
2018-08-24T23:37:32.006Z,99502.37
2018-08-24T23:39:59.711Z,99488.98
2018-08-24T23:42:27.420Z,99490.11
2018-08-24T23:44:55.142Z,99493.33
2018-08-24T23:47:22.842Z,99494.12
2018-08-24T23:49:50.569Z,99499.12
2018-08-24T23:52:18.256Z,99500.41
2018-08-24T23:54:45.963Z,99495.98
2018-08-24T23:57:13.680Z,99502.62
2018-08-24T23:59:41.373Z,99506.41
